Time;durP1;ratioP1;P1;durP2;ratioP2;P2;SDS_P1;SDS_P2;PMS_P1;PMS_P2;Temp;Humidity;BMP_temperature;BMP_pressure;BME280_temperature;BME280_humidity;BME280_pressure;Samples;Min_cycle;Max_cycle;Signal;HPM_P1;HPM_P2
2022/09/10 00:00:08;;;;;;;9.55;7.28;;;;;;;25.10;53.78;94872.03;4937724;28;20307;-64
2022/09/10 00:02:35;;;;;;;10.55;7.05;;;;;;;25.01;54.60;94875.19;4954129;28;20043;-65
2022/09/10 00:05:02;;;;;;;10.55;7.13;;;;;;;24.84;54.84;94871.97;4938786;28;20054;-66
2022/09/10 00:07:28;;;;;;;8.75;6.93;;;;;;;24.90;54.89;94864.44;4958488;28;20510;-68
2022/09/10 00:10:05;;;;;;;14.02;9.40;;;;;;;24.91;55.06;94887.00;4939829;28;20058;-69
2022/09/10 00:12:31;;;;;;;11.18;7.65;;;;;;;24.83;55.03;94881.41;4957491;28;20073;-68
2022/09/10 00:14:57;;;;;;;10.23;7.25;;;;;;;24.98;54.79;94870.72;4940962;28;20715;-67
2022/09/10 00:17:23;;;;;;;11.02;8.07;;;;;;;24.92;55.03;94872.09;4960843;28;20046;-67
2022/09/10 00:19:49;;;;;;;11.65;7.80;;;;;;;24.86;55.28;94877.66;4955338;28;20739;-67
2022/09/10 00:22:15;;;;;;;11.82;7.97;;;;;;;24.82;55.11;94877.22;4956507;28;20041;-61
2022/09/10 00:25:48;;;;;;;10.88;7.28;;;;;;;24.78;55.54;94872.56;4919769;28;20030;-59
2022/09/10 00:29:30;;;;;;;14.98;7.90;;;;;;;24.86;55.31;94885.84;4892606;28;20070;-61
2022/09/10 00:33:07;;;;;;;9.30;6.85;;;;;;;24.77;55.46;94871.09;4890476;28;20042;-62
2022/09/10 00:36:54;;;;;;;10.45;7.15;;;;;;;24.81;55.50;94874.28;4876058;28;20672;-59
2022/09/10 00:40:33;;;;;;;10.55;7.72;;;;;;;24.78;55.43;94883.50;4893568;28;20128;-59
2022/09/10 00:44:08;;;;;;;9.18;7.20;;;;;;;24.79;55.92;94885.72;4949190;28;20387;-58
2022/09/10 00:48:03;;;;;;;12.38;7.55;;;;;;;24.74;55.96;94872.91;4900975;28;20133;-58
2022/09/10 00:51:46;;;;;;;9.52;7.13;;;;;;;24.72;55.46;94863.75;4900967;28;20050;-58
2022/09/10 00:55:34;;;;;;;15.27;7.78;;;;;;;24.65;55.85;94873.28;4866749;28;20039;-58
2022/09/10 00:59:14;;;;;;;11.05;7.00;;;;;;;24.71;55.70;94871.22;4909472;28;20060;-59
2022/09/10 01:03:05;;;;;;;10.75;7.45;;;;;;;24.66;56.23;94876.75;4882656;28;20043;-59
2022/09/10 01:06:52;;;;;;;9.98;7.38;;;;;;;24.84;55.54;94866.50;4889451;28;20146;-59
2022/09/10 01:10:38;;;;;;;10.57;7.15;;;;;;;24.75;56.11;94851.78;4886127;28;20109;-59
2022/09/10 01:14:28;;;;;;;10.60;7.10;;;;;;;24.78;56.06;94867.13;4883043;28;20046;-59
2022/09/10 01:18:02;;;;;;;9.98;7.45;;;;;;;24.81;56.00;94866.06;4909346;28;20252;-58
2022/09/10 01:25:11;;;;;;;11.48;7.03;;;;;;;24.72;56.03;94852.81;4924369;28;20065;-59
2022/09/10 01:28:51;;;;;;;11.27;7.63;;;;;;;24.70;55.77;94844.41;4883404;28;20133;-58
2022/09/10 01:32:37;;;;;;;9.82;7.60;;;;;;;24.87;55.27;94831.94;4903830;28;20061;-59
2022/09/10 01:35:44;;;;;;;11.55;8.13;;;;;;;24.77;55.87;94827.41;4868612;28;20093;-58
2022/09/10 01:38:32;;;;;;;10.35;7.63;;;;;;;24.78;55.98;94834.34;4972474;28;20038;-59
2022/09/10 01:40:58;;;;;;;11.17;7.27;;;;;;;24.76;56.07;94836.88;4960131;28;20042;-60
2022/09/10 01:43:24;;;;;;;9.93;7.45;;;;;;;24.73;56.54;94843.38;4973095;28;20022;-58
2022/09/10 01:45:50;;;;;;;10.85;7.30;;;;;;;24.70;56.57;94833.50;4971394;28;20571;-59
2022/09/10 01:48:38;;;;;;;10.70;7.57;;;;;;;24.81;56.15;94841.50;4972661;28;20456;-59
2022/09/10 01:51:37;;;;;;;7.72;6.88;;;;;;;24.80;56.39;94838.03;4950790;28;20031;-59
2022/09/10 01:54:29;;;;;;;10.82;7.53;;;;;;;24.76;56.40;94847.78;4955594;28;20038;-58
2022/09/10 01:57:05;;;;;;;9.50;6.50;;;;;;;24.68;56.60;94858.59;4957799;28;20114;-59
2022/09/10 01:59:48;;;;;;;10.32;7.00;;;;;;;24.67;56.88;94857.09;4978553;28;20664;-59
2022/09/10 02:02:22;;;;;;;9.73;7.20;;;;;;;24.74;56.32;94867.44;4953050;28;20050;-59
2022/09/10 02:04:49;;;;;;;12.02;7.63;;;;;;;24.74;56.13;94872.13;4967395;28;20125;-59
2022/09/10 02:07:15;;;;;;;13.73;7.75;;;;;;;24.70;56.36;94867.00;4964387;28;20026;-59
2022/09/10 02:09:41;;;;;;;13.43;7.75;;;;;;;24.68;56.35;94874.22;4994095;28;20033;-59
2022/09/10 02:12:11;;;;;;;11.80;7.82;;;;;;;24.81;56.35;94874.28;4964773;28;20240;-59
2022/09/10 02:14:38;;;;;;;9.25;7.43;;;;;;;24.63;56.38;94861.41;4953442;28;20124;-59
2022/09/10 02:17:04;;;;;;;9.55;7.75;;;;;;;24.82;55.65;94855.34;4948427;28;20517;-58
2022/09/10 02:19:29;;;;;;;10.82;7.78;;;;;;;24.61;56.60;94844.81;4928381;28;20022;-58
2022/09/10 02:21:56;;;;;;;10.63;8.15;;;;;;;24.69;56.61;94859.31;4927907;28;20041;-59
2022/09/10 02:24:22;;;;;;;12.27;7.50;;;;;;;24.57;56.71;94852.56;4949523;28;20216;-57
2022/09/10 02:26:48;;;;;;;10.30;7.60;;;;;;;24.65;56.42;94853.41;4946103;28;20428;-58
2022/09/10 02:29:15;;;;;;;9.32;7.40;;;;;;;24.66;56.30;94846.72;4929083;28;20035;-59
2022/09/10 02:31:42;;;;;;;9.65;7.47;;;;;;;24.63;56.48;94847.75;4934334;28;20042;-61
2022/09/10 02:34:09;;;;;;;10.88;7.63;;;;;;;24.66;56.58;94839.25;4952336;28;20215;-58
2022/09/10 02:36:36;;;;;;;10.75;7.80;;;;;;;24.67;56.88;94851.66;4915961;28;20066;-61
2022/09/10 02:39:03;;;;;;;9.60;7.63;;;;;;;24.64;56.67;94851.97;4966725;28;20746;-58
2022/09/10 02:41:32;;;;;;;8.60;7.22;;;;;;;24.37;56.77;94817.66;4960248;28;20573;-58
2022/09/10 02:44:00;;;;;;;10.00;7.15;;;;;;;24.59;56.67;94871.91;4949176;28;20042;-58
2022/09/10 02:46:25;;;;;;;10.82;7.20;;;;;;;24.36;57.70;94859.84;4974879;28;20928;-59
2022/09/10 02:48:53;;;;;;;11.95;7.57;;;;;;;24.53;56.97;94857.59;4974736;28;20039;-59
2022/09/10 02:51:21;;;;;;;11.32;7.85;;;;;;;24.60;56.79;94856.97;4970293;28;20034;-59
2022/09/10 02:53:46;;;;;;;12.38;7.43;;;;;;;24.56;57.23;94859.31;4948426;28;20038;-62
2022/09/10 02:57:13;;;;;;;8.90;7.05;;;;;;;24.66;56.63;94871.28;4972658;28;20115;-58
2022/09/10 03:00:55;;;;;;;9.75;7.32;;;;;;;24.64;56.77;94862.88;4886984;28;20174;-58
2022/09/10 03:04:44;;;;;;;11.10;7.80;;;;;;;24.60;56.35;94851.53;4912977;28;20026;-58
2022/09/10 03:08:34;;;;;;;8.65;7.40;;;;;;;24.65;56.64;94861.59;4870386;28;20873;-58
2022/09/10 03:12:11;;;;;;;14.95;7.57;;;;;;;24.64;56.61;94857.44;4896609;28;20043;-58
2022/09/10 03:15:57;;;;;;;10.75;7.43;;;;;;;24.59;57.07;94869.19;4923563;28;20403;-58
2022/09/10 03:19:38;;;;;;;11.50;7.68;;;;;;;24.59;57.16;94863.72;4856077;29;20051;-58
2022/09/10 03:23:23;;;;;;;11.25;7.43;;;;;;;24.58;56.82;94856.78;4903309;28;20056;-58
2022/09/10 03:27:10;;;;;;;10.50;7.70;;;;;;;24.62;57.08;94865.38;4911415;28;20050;-60
2022/09/10 03:30:47;;;;;;;10.77;7.10;;;;;;;24.58;57.08;94862.25;4889214;28;20153;-59
2022/09/10 03:34:25;;;;;;;10.25;7.28;;;;;;;24.61;57.20;94855.75;4924322;28;20434;-59
2022/09/10 03:38:02;;;;;;;9.93;7.55;;;;;;;24.71;57.09;94851.34;4900381;28;20492;-58
2022/09/10 03:41:41;;;;;;;11.73;7.60;;;;;;;24.66;57.06;94843.97;4911549;28;20193;-59
2022/09/10 03:45:19;;;;;;;12.75;7.63;;;;;;;24.65;57.28;94853.41;4875735;28;20230;-59
2022/09/10 03:49:14;;;;;;;10.20;7.13;;;;;;;24.56;57.46;94845.66;4875213;28;20394;-58
2022/09/10 03:53:02;;;;;;;11.32;7.70;;;;;;;24.58;57.81;94834.94;4926017;28;20321;-59
2022/09/10 03:56:44;;;;;;;13.23;8.70;;;;;;;24.60;57.43;94835.13;4877028;28;20066;-58
2022/09/10 04:04:07;;;;;;;9.98;6.97;;;;;;;24.47;58.33;94832.38;4903378;28;20352;-58
2022/09/10 04:07:49;;;;;;;10.65;7.10;;;;;;;24.50;58.57;94842.28;4850107;28;20122;-61
2022/09/10 04:11:43;;;;;;;11.27;7.63;;;;;;;24.54;58.19;94842.69;4924020;28;20062;-58
2022/09/10 04:15:23;;;;;;;8.70;7.25;;;;;;;24.52;58.29;94839.75;4880098;28;20383;-60
2022/09/10 04:49:49;;;;;;;9.52;7.18;;;;;;;24.56;57.86;94864.75;4869982;28;20143;-60
2022/09/10 04:53:49;;;;;;;11.48;7.72;;;;;;;24.50;58.39;94836.81;4901938;28;20125;-58
2022/09/10 05:00:54;;;;;;;10.32;7.30;;;;;;;23.95;57.71;94742.13;4902441;28;20060;-59
2022/09/10 05:16:08;;;;;;;8.77;7.20;;;;;;;24.58;58.85;94848.59;4755597;29;20145;-60
2022/09/10 05:20:19;;;;;;;13.33;8.07;;;;;;;24.72;58.74;94858.28;4749735;29;20053;-59
2022/09/10 05:24:26;;;;;;;10.85;7.47;;;;;;;24.77;58.99;94865.63;4778719;29;20299;-60
2022/09/10 05:28:17;;;;;;;10.25;7.88;;;;;;;24.95;58.54;94869.03;4762391;29;20313;-59
2022/09/10 05:31:56;;;;;;;10.05;7.10;;;;;;;24.92;58.41;94881.03;4745552;29;20056;-60
2022/09/10 05:39:27;;;;;;;14.05;8.40;;;;;;;25.31;57.54;94866.72;4838688;29;20602;-61
2022/09/10 06:00:18;;;;;;;13.93;8.75;;;;;;;25.99;55.70;94865.09;4813401;29;20604;-60
2022/09/10 06:31:04;;;;;;;12.18;8.77;;;;;;;26.50;52.13;94861.47;4934310;28;20110;-59
2022/09/10 06:41:39;;;;;;;12.05;7.93;;;;;;;26.67;51.08;94869.31;4898782;28;20079;-59
2022/09/10 06:45:40;;;;;;;11.07;7.78;;;;;;;26.85;50.63;94858.84;4818878;28;20324;-59
2022/09/10 06:56:26;;;;;;;12.57;8.43;;;;;;;26.76;50.87;94856.59;4891449;28;20051;-60
2022/09/10 07:47:29;;;;;;;9.82;7.80;;;;;;;27.62;48.77;94862.38;4933036;28;20190;-59
2022/09/10 08:43:15;;;;;;;10.90;8.15;;;;;;;28.13;47.83;94834.44;4829247;28;20520;-59
2022/09/10 08:53:40;;;;;;;11.65;8.25;;;;;;;28.03;48.77;94835.47;4893617;28;20352;-59
2022/09/10 09:01:00;;;;;;;9.70;8.38;;;;;;;28.18;48.12;94836.28;4892007;28;20057;-59
2022/09/10 09:05:16;;;;;;;10.07;7.60;;;;;;;28.09;48.05;94834.06;4816498;28;20121;-59
2022/09/10 09:12:18;;;;;;;10.88;8.20;;;;;;;28.20;48.05;94828.22;4844297;29;20050;-58
2022/09/10 11:41:36;;;;;;;11.52;4.53;;;;;;;28.51;50.01;94731.56;4889493;28;20081;-60
2022/09/10 12:02:05;;;;;;;11.05;4.93;;;;;;;27.28;55.84;94758.31;4889273;28;20054;-63
2022/09/10 12:25:51;;;;;;;8.73;4.38;;;;;;;27.09;56.60;94707.75;4919081;28;20458;-62
2022/09/10 12:29:32;;;;;;;9.05;3.95;;;;;;;26.81;57.04;94683.06;4840955;28;20503;-62
2022/09/10 12:33:35;;;;;;;8.25;4.13;;;;;;;26.98;57.16;94702.59;4852540;28;20442;-61
2022/09/10 12:40:37;;;;;;;16.58;5.85;;;;;;;26.97;59.85;94695.63;4890223;28;20542;-62
2022/09/10 12:48:00;;;;;;;10.82;5.30;;;;;;;27.02;61.34;94659.09;4855728;29;20219;-63
2022/09/10 12:58:25;;;;;;;12.50;6.85;;;;;;;27.01;62.88;94652.16;4887842;28;20129;-63
2022/09/10 13:22:35;;;;;;;11.73;7.13;;;;;;;27.06;65.44;94642.31;4869889;28;20581;-60
2022/09/10 14:06:35;;;;;;;9.27;5.40;;;;;;;27.10;65.10;94610.53;4928547;28;20045;-63
2022/09/10 14:13:59;;;;;;;13.45;6.90;;;;;;;27.39;63.79;94609.16;4930730;28;20056;-62
2022/09/10 14:17:56;;;;;;;10.93;6.90;;;;;;;27.33;65.78;94597.63;4829430;28;20055;-63
2022/09/10 14:21:56;;;;;;;9.32;6.35;;;;;;;27.36;66.65;94604.75;4904471;28;20098;-61
2022/09/10 14:42:13;;;;;;;12.75;7.88;;;;;;;27.81;65.07;94600.81;4864130;29;20115;-61
2022/09/10 14:45:46;;;;;;;12.13;7.82;;;;;;;28.44;64.88;94600.41;4845351;28;20071;-61
2022/09/10 14:49:22;;;;;;;11.38;6.45;;;;;;;28.86;61.25;94585.69;4891541;28;20039;-60
2022/09/10 14:51:58;;;;;;;10.25;6.70;;;;;;;28.73;60.10;94583.16;4881446;29;20058;-63
2022/09/10 14:54:26;;;;;;;12.23;6.80;;;;;;;27.92;62.49;94584.00;4946876;28;20031;-62
2022/09/10 14:56:55;;;;;;;11.30;7.10;;;;;;;27.47;63.72;94587.94;4937770;28;20050;-62
2022/09/10 14:59:37;;;;;;;10.77;6.55;;;;;;;27.51;63.59;94582.88;4970391;28;20031;-64
2022/09/10 15:02:18;;;;;;;12.50;6.57;;;;;;;27.05;64.16;94586.75;4920043;28;20038;-65
2022/09/10 17:11:31;;;;;;;6.93;3.92;;;;;;;26.64;58.72;94695.03;4843317;28;20177;-62
2022/09/10 17:32:55;;;;;;;7.55;3.40;;;;;;;27.14;54.94;94715.06;4936180;28;19969;-62
2022/09/10 17:43:21;;;;;;;6.35;2.97;;;;;;;27.05;52.85;94707.34;4962758;28;20085;-65
2022/09/10 17:57:04;;;;;;;7.85;3.00;;;;;;;26.81;51.46;94633.75;4838146;28;20060;-66
2022/09/10 18:25:18;;;;;;;6.78;3.13;;;;;;;27.29;50.79;94731.59;4983521;28;20665;-66
2022/09/10 18:28:03;;;;;;;7.18;3.05;;;;;;;27.29;50.37;94723.38;4923357;28;20046;-63
2022/09/10 18:30:30;;;;;;;4.40;2.75;;;;;;;27.43;48.77;94728.19;4989717;28;20058;-64
2022/09/10 18:32:57;;;;;;;5.30;2.63;;;;;;;27.49;48.24;94728.78;4963442;28;20069;-61
2022/09/10 18:46:10;;;;;;;6.32;2.85;;;;;;;27.53;47.82;94744.91;5004527;28;20052;-63
2022/09/10 19:12:53;;;;;;;5.20;2.20;;;;;;;28.09;46.13;94795.63;4977136;28;20040;-63
2022/09/10 20:04:29;;;;;;;3.83;2.30;;;;;;;27.53;48.48;94772.34;5025792;23;20109;-79
2022/09/10 20:06:55;;;;;;;4.30;2.00;;;;;;;27.12;49.25;94772.47;5037141;28;20025;-78
2022/09/10 20:09:20;;;;;;;5.43;2.20;;;;;;;27.15;49.47;94787.84;5022326;28;20017;-75
2022/09/10 20:11:46;;;;;;;5.15;2.25;;;;;;;27.08;49.02;94760.38;5033399;28;20033;-74
2022/09/10 20:14:12;;;;;;;5.00;2.00;;;;;;;26.79;50.01;94734.94;5036065;28;20143;-76
2022/09/10 20:16:39;;;;;;;4.25;2.33;;;;;;;27.06;49.90;94804.78;5016093;28;20119;-78
2022/09/10 20:19:05;;;;;;;4.45;2.55;;;;;;;27.09;50.17;94811.19;5019947;28;20499;-76
2022/09/10 20:21:30;;;;;;;4.35;2.50;;;;;;;27.01;50.01;94805.66;5042129;28;20024;-79
2022/09/10 20:23:56;;;;;;;6.30;2.45;;;;;;;27.06;49.78;94796.56;5015696;28;20493;-78
2022/09/10 20:26:29;;;;;;;5.50;2.40;;;;;;;27.03;50.01;94822.28;5031583;28;20036;-82
2022/09/10 20:28:59;;;;;;;4.45;2.53;;;;;;;26.58;50.08;94747.22;5035808;28;20106;-78
2022/09/10 20:31:26;;;;;;;5.18;2.15;;;;;;;26.78;50.30;94799.22;5027458;28;20040;-75
2022/09/10 20:33:55;;;;;;;5.97;2.30;;;;;;;26.97;50.32;94827.19;5029203;28;20044;-76
2022/09/10 20:36:21;;;;;;;5.85;2.40;;;;;;;27.11;50.00;94820.34;5022236;28;20013;-75
2022/09/10 20:38:47;;;;;;;5.32;2.30;;;;;;;26.61;50.69;94800.22;5041232;28;20029;-76
2022/09/10 20:41:13;;;;;;;4.13;2.45;;;;;;;26.60;50.77;94787.78;5037624;28;20059;-76
2022/09/10 20:43:38;;;;;;;5.20;2.55;;;;;;;26.53;50.19;94763.78;5031835;28;20052;-77
2022/09/10 20:46:05;;;;;;;5.18;2.55;;;;;;;27.07;50.12;94825.44;5028036;28;20056;-77
2022/09/10 20:48:30;;;;;;;4.45;2.30;;;;;;;26.77;50.65;94819.72;5026711;28;20132;-73
2022/09/10 20:50:59;;;;;;;4.38;2.47;;;;;;;26.77;50.70;94830.66;5030260;28;20124;-74
2022/09/10 20:53:25;;;;;;;5.60;2.65;;;;;;;26.96;50.08;94828.44;5020147;28;20033;-74
2022/09/10 20:55:50;;;;;;;4.68;2.50;;;;;;;26.36;50.50;94768.94;5059826;28;20044;-76
2022/09/10 20:58:16;;;;;;;4.88;2.47;;;;;;;26.56;49.76;94787.38;5038968;28;20424;-76
2022/09/10 21:00:42;;;;;;;4.20;2.50;;;;;;;26.65;50.02;94806.06;5008182;28;20074;-74
2022/09/10 21:03:13;;;;;;;4.00;2.10;;;;;;;26.57;50.12;94799.81;5045445;28;20456;-76
2022/09/10 21:05:39;;;;;;;4.15;2.70;;;;;;;26.48;49.90;94770.88;5007808;28;20234;-75
2022/09/10 21:08:04;;;;;;;4.25;2.40;;;;;;;26.33;49.82;94748.13;5045887;28;20045;-76
2022/09/10 21:10:30;;;;;;;4.45;2.55;;;;;;;26.74;49.92;94822.03;5008353;28;20048;-76
2022/09/10 21:12:55;;;;;;;4.65;2.45;;;;;;;26.96;48.85;94824.97;5032852;28;20029;-74
2022/09/10 21:15:21;;;;;;;5.75;2.58;;;;;;;26.72;49.18;94816.38;5040768;28;20052;-73
2022/09/10 21:17:48;;;;;;;6.25;2.80;;;;;;;26.71;49.39;94831.31;5028555;28;20080;-74
2022/09/10 21:20:13;;;;;;;4.80;3.17;;;;;;;26.64;49.48;94799.16;5023014;28;20099;-75
2022/09/10 21:22:39;;;;;;;5.95;2.80;;;;;;;26.64;49.18;94821.06;5014834;28;20037;-73
2022/09/10 21:25:06;;;;;;;5.50;2.58;;;;;;;26.50;49.94;94827.84;5056325;28;20090;-73
2022/09/10 21:27:31;;;;;;;4.60;2.70;;;;;;;26.15;49.44;94786.63;5024443;28;20044;-73
2022/09/10 21:29:57;;;;;;;4.28;2.60;;;;;;;26.43;49.61;94834.00;5023194;28;20083;-73
2022/09/10 21:32:23;;;;;;;3.85;2.40;;;;;;;25.88;49.26;94747.66;5028310;28;20053;-73
2022/09/10 21:34:48;;;;;;;5.13;2.30;;;;;;;24.92;49.42;94618.75;5042617;28;20498;-73
2022/09/10 21:37:14;;;;;;;4.68;3.10;;;;;;;26.15;49.44;94809.22;5021138;28;20226;-73
2022/09/10 21:39:39;;;;;;;5.80;2.60;;;;;;;26.33;49.51;94824.78;5029156;28;20058;-73
2022/09/10 21:42:05;;;;;;;4.43;2.33;;;;;;;25.82;49.89;94792.81;5062801;28;20431;-73
2022/09/10 21:44:31;;;;;;;5.43;2.75;;;;;;;25.97;50.43;94837.50;5024475;28;20053;-73
2022/09/10 21:46:56;;;;;;;4.00;2.58;;;;;;;25.86;50.13;94815.84;5028034;28;20122;-73
2022/09/10 21:49:22;;;;;;;4.47;2.53;;;;;;;25.96;50.42;94844.25;5026830;28;20132;-74
2022/09/10 21:51:47;;;;;;;4.60;2.50;;;;;;;25.35;50.17;94763.97;5054742;28;20550;-73
2022/09/10 21:54:19;;;;;;;5.18;2.35;;;;;;;25.56;50.31;94786.63;5032802;28;20115;-73
2022/09/10 21:56:44;;;;;;;5.65;2.30;;;;;;;25.65;50.61;94843.66;5021105;28;20068;-73
2022/09/10 21:59:13;;;;;;;4.78;2.55;;;;;;;25.72;50.76;94837.56;5015867;28;20061;-73
2022/09/10 22:01:40;;;;;;;5.07;2.17;;;;;;;25.53;50.61;94806.84;5037992;28;20081;-72
2022/09/10 22:04:06;;;;;;;5.22;2.75;;;;;;;25.74;50.57;94840.50;5005380;23;20046;-72
2022/09/10 22:06:31;;;;;;;3.00;2.28;;;;;;;25.64;50.64;94847.66;5023215;28;20044;-62
2022/09/10 22:08:59;;;;;;;4.25;2.47;;;;;;;25.61;50.80;94837.78;5006663;28;20022;-74
2022/09/10 22:11:29;;;;;;;5.57;2.40;;;;;;;25.62;50.88;94839.22;5010462;28;20060;-70
2022/09/10 22:13:58;;;;;;;5.28;2.50;;;;;;;25.69;50.77;94849.56;5033034;28;20048;-67
2022/09/10 22:16:23;;;;;;;6.50;2.03;;;;;;;25.69;50.32;94842.09;5035383;28;20148;-68
2022/09/10 22:18:48;;;;;;;5.60;2.38;;;;;;;25.58;50.66;94844.28;5032881;28;20504;-72
2022/09/10 22:21:15;;;;;;;5.05;2.53;;;;;;;25.66;50.33;94839.69;5015678;28;20034;-74
2022/09/10 22:23:41;;;;;;;5.07;2.40;;;;;;;25.62;50.29;94833.75;5018896;28;20041;-69
2022/09/10 22:26:08;;;;;;;4.68;2.42;;;;;;;25.36;51.32;94833.78;5031983;28;20467;-75
2022/09/10 22:28:34;;;;;;;5.43;2.50;;;;;;;25.21;50.83;94806.25;5005330;28;20044;-72
2022/09/10 22:31:13;;;;;;;5.18;2.17;;;;;;;25.21;50.79;94784.38;5038464;28;20152;-70
2022/09/10 22:33:40;;;;;;;3.47;2.33;;;;;;;25.45;50.66;94836.09;5023897;28;20030;-76
2022/09/10 22:36:19;;;;;;;4.95;2.35;;;;;;;25.52;50.70;94846.41;5019240;28;20036;-71
2022/09/10 22:38:49;;;;;;;4.20;2.70;;;;;;;24.92;50.55;94766.28;4998666;28;20259;-71
2022/09/10 22:41:15;;;;;;;4.93;2.50;;;;;;;25.40;50.65;94845.88;5005815;28;20087;-69
2022/09/10 22:43:42;;;;;;;4.85;2.33;;;;;;;25.21;50.77;94822.63;5012445;28;20572;-72
2022/09/10 22:46:12;;;;;;;4.65;2.90;;;;;;;25.25;50.43;94823.06;5010967;28;20046;-75
2022/09/10 22:48:39;;;;;;;4.15;2.50;;;;;;;25.05;50.62;94815.50;5007166;28;20021;-70
2022/09/10 22:51:05;;;;;;;3.90;2.50;;;;;;;25.31;50.72;94851.03;5012971;28;20029;-65
2022/09/10 22:53:42;;;;;;;4.53;2.30;;;;;;;25.14;50.60;94834.22;4976547;28;20859;-71
2022/09/10 22:56:12;;;;;;;3.45;2.58;;;;;;;24.48;50.49;94747.25;4981581;28;20057;-67
2022/09/10 22:58:38;;;;;;;6.38;2.85;;;;;;;25.03;50.38;94787.94;4995699;28;20101;-65
2022/09/10 23:01:08;;;;;;;3.90;2.63;;;;;;;24.54;50.44;94738.94;5012602;28;20137;-62
2022/09/10 23:03:34;;;;;;;4.35;2.60;;;;;;;24.53;50.66;94723.84;5004092;28;20049;-64
2022/09/10 23:06:18;;;;;;;6.20;2.40;;;;;;;25.17;50.74;94832.41;5002485;28;20045;-72
2022/09/10 23:08:45;;;;;;;5.03;3.10;;;;;;;25.04;50.48;94808.56;5014394;28;21640;-67
2022/09/10 23:11:14;;;;;;;4.47;3.20;;;;;;;25.02;50.34;94794.69;4994566;28;20094;-66
2022/09/10 23:13:40;;;;;;;4.95;2.92;;;;;;;25.17;50.44;94827.72;5007545;28;20030;-69
2022/09/10 23:16:12;;;;;;;6.22;3.15;;;;;;;24.82;50.80;94781.59;5010914;28;20045;-74
2022/09/10 23:18:38;;;;;;;5.50;3.13;;;;;;;25.10;51.10;94816.66;5010313;28;20064;-70
2022/09/10 23:21:05;;;;;;;4.20;3.20;;;;;;;25.19;50.61;94808.78;5010812;28;20022;-73
2022/09/10 23:23:30;;;;;;;6.10;3.60;;;;;;;25.13;50.78;94827.28;5010100;28;20044;-69
2022/09/10 23:25:56;;;;;;;4.80;3.20;;;;;;;24.97;51.05;94820.06;5002832;28;20034;-63
2022/09/10 23:28:27;;;;;;;5.95;3.40;;;;;;;24.62;50.84;94747.97;4986489;28;20030;-64
2022/09/10 23:30:53;;;;;;;5.65;3.25;;;;;;;24.83;51.13;94804.22;5017370;28;20026;-70
2022/09/10 23:33:19;;;;;;;7.28;3.38;;;;;;;24.18;51.37;94712.50;5009156;28;20025;-70
2022/09/10 23:35:50;;;;;;;5.40;4.20;;;;;;;25.13;50.84;94826.53;5016781;28;20042;-68
2022/09/10 23:38:17;;;;;;;6.07;3.80;;;;;;;24.95;50.78;94795.28;5006203;28;20491;-67
2022/09/10 23:40:43;;;;;;;5.65;4.15;;;;;;;24.81;51.45;94801.25;5020523;28;20037;-68
2022/09/10 23:43:09;;;;;;;7.85;4.10;;;;;;;25.03;51.13;94828.94;5003874;28;20042;-72
2022/09/10 23:45:34;;;;;;;4.97;3.63;;;;;;;24.94;50.84;94810.19;5003712;28;20662;-66
2022/09/10 23:48:00;;;;;;;7.30;4.20;;;;;;;25.01;50.99;94826.00;5003385;28;20041;-64
2022/09/10 23:50:25;;;;;;;5.88;3.70;;;;;;;24.33;50.77;94712.78;5011363;28;20493;-69
2022/09/10 23:52:51;;;;;;;6.20;3.75;;;;;;;23.75;51.23;94664.84;5004745;28;20034;-71
2022/09/10 23:55:18;;;;;;;5.93;4.05;;;;;;;24.75;50.71;94789.69;5015315;28;20029;-71
2022/09/10 23:57:43;;;;;;;7.32;4.03;;;;;;;24.89;50.99;94807.59;5003392;28;20065;-68
